sensor_id;sensor_type;location;lat;lon;timestamp;P1;durP1;ratioP1;P2;durP2;ratioP2
46755;SDS011;32506;52.826;-1.192;2024-01-30T00:02:24;24.55;;;10.80;;
46755;SDS011;32506;52.826;-1.192;2024-01-30T00:04:50;25.45;;;11.20;;
46755;SDS011;32506;52.826;-1.192;2024-01-30T00:07:16;23.67;;;11.38;;
46755;SDS011;32506;52.826;-1.192;2024-01-30T00:09:43;26.52;;;11.20;;
46755;SDS011;32506;52.826;-1.192;2024-01-30T00:12:11;22.40;;;11.13;;
46755;SDS011;32506;52.826;-1.192;2024-01-30T00:14:37;19.48;;;11.05;;
46755;SDS011;32506;52.826;-1.192;2024-01-30T00:17:03;27.42;;;13.13;;
46755;SDS011;32506;52.826;-1.192;2024-01-30T00:19:30;19.83;;;10.57;;
46755;SDS011;32506;52.826;-1.192;2024-01-30T00:21:56;21.77;;;10.80;;
46755;SDS011;32506;52.826;-1.192;2024-01-30T00:24:21;27.33;;;11.20;;
46755;SDS011;32506;52.826;-1.192;2024-01-30T00:26:47;19.75;;;10.27;;
46755;SDS011;32506;52.826;-1.192;2024-01-30T00:29:13;24.50;;;10.73;;
46755;SDS011;32506;52.826;-1.192;2024-01-30T00:31:44;22.40;;;9.50;;
46755;SDS011;32506;52.826;-1.192;2024-01-30T00:34:13;24.10;;;9.90;;
46755;SDS011;32506;52.826;-1.192;2024-01-30T00:36:39;23.30;;;10.57;;
46755;SDS011;32506;52.826;-1.192;2024-01-30T00:39:05;22.05;;;9.93;;
46755;SDS011;32506;52.826;-1.192;2024-01-30T00:41:33;24.55;;;10.15;;
46755;SDS011;32506;52.826;-1.192;2024-01-30T00:44:00;17.90;;;9.68;;
46755;SDS011;32506;52.826;-1.192;2024-01-30T00:46:25;20.05;;;10.07;;
46755;SDS011;32506;52.826;-1.192;2024-01-30T00:48:51;20.88;;;9.32;;
46755;SDS011;32506;52.826;-1.192;2024-01-30T00:51:16;20.55;;;10.75;;
46755;SDS011;32506;52.826;-1.192;2024-01-30T00:53:42;25.25;;;10.27;;
46755;SDS011;32506;52.826;-1.192;2024-01-30T00:56:08;18.35;;;9.35;;
46755;SDS011;32506;52.826;-1.192;2024-01-30T00:58:34;24.73;;;9.15;;
46755;SDS011;32506;52.826;-1.192;2024-01-30T01:00:59;22.25;;;9.63;;
46755;SDS011;32506;52.826;-1.192;2024-01-30T01:03:25;16.48;;;8.73;;
46755;SDS011;32506;52.826;-1.192;2024-01-30T01:05:51;20.75;;;8.60;;
46755;SDS011;32506;52.826;-1.192;2024-01-30T01:08:17;22.27;;;8.85;;
46755;SDS011;32506;52.826;-1.192;2024-01-30T01:10:43;21.65;;;8.50;;
46755;SDS011;32506;52.826;-1.192;2024-01-30T01:13:08;18.52;;;7.68;;
46755;SDS011;32506;52.826;-1.192;2024-01-30T01:15:34;21.55;;;8.07;;
46755;SDS011;32506;52.826;-1.192;2024-01-30T01:18:01;19.45;;;8.02;;
46755;SDS011;32506;52.826;-1.192;2024-01-30T01:20:27;24.67;;;8.50;;
46755;SDS011;32506;52.826;-1.192;2024-01-30T01:22:53;21.38;;;8.38;;
46755;SDS011;32506;52.826;-1.192;2024-01-30T01:25:19;21.45;;;8.25;;
46755;SDS011;32506;52.826;-1.192;2024-01-30T01:27:48;22.80;;;8.15;;
46755;SDS011;32506;52.826;-1.192;2024-01-30T01:30:17;20.48;;;7.95;;
46755;SDS011;32506;52.826;-1.192;2024-01-30T01:32:48;16.88;;;6.55;;
46755;SDS011;32506;52.826;-1.192;2024-01-30T01:35:23;15.40;;;7.33;;
46755;SDS011;32506;52.826;-1.192;2024-01-30T01:38:06;11.57;;;5.50;;
46755;SDS011;32506;52.826;-1.192;2024-01-30T01:40:32;15.32;;;6.35;;
46755;SDS011;32506;52.826;-1.192;2024-01-30T01:43:03;16.17;;;6.30;;
46755;SDS011;32506;52.826;-1.192;2024-01-30T01:45:30;14.40;;;6.28;;
46755;SDS011;32506;52.826;-1.192;2024-01-30T01:47:56;15.60;;;6.63;;
46755;SDS011;32506;52.826;-1.192;2024-01-30T01:50:22;11.45;;;6.03;;
46755;SDS011;32506;52.826;-1.192;2024-01-30T01:52:48;15.50;;;5.50;;
46755;SDS011;32506;52.826;-1.192;2024-01-30T01:55:15;10.48;;;4.90;;
46755;SDS011;32506;52.826;-1.192;2024-01-30T01:57:47;13.13;;;5.77;;
46755;SDS011;32506;52.826;-1.192;2024-01-30T02:00:17;12.82;;;4.18;;
46755;SDS011;32506;52.826;-1.192;2024-01-30T02:02:45;10.43;;;4.95;;
46755;SDS011;32506;52.826;-1.192;2024-01-30T02:05:12;9.27;;;4.07;;
46755;SDS011;32506;52.826;-1.192;2024-01-30T02:07:37;11.90;;;4.18;;
46755;SDS011;32506;52.826;-1.192;2024-01-30T02:10:03;12.68;;;4.47;;
46755;SDS011;32506;52.826;-1.192;2024-01-30T02:12:29;9.65;;;4.45;;
46755;SDS011;32506;52.826;-1.192;2024-01-30T02:14:55;10.30;;;4.18;;
46755;SDS011;32506;52.826;-1.192;2024-01-30T02:17:21;7.30;;;3.35;;
46755;SDS011;32506;52.826;-1.192;2024-01-30T02:19:48;9.32;;;3.13;;
46755;SDS011;32506;52.826;-1.192;2024-01-30T02:22:13;10.30;;;3.25;;
46755;SDS011;32506;52.826;-1.192;2024-01-30T02:24:40;8.65;;;3.25;;
46755;SDS011;32506;52.826;-1.192;2024-01-30T02:27:06;5.97;;;2.80;;
46755;SDS011;32506;52.826;-1.192;2024-01-30T02:29:31;9.93;;;2.80;;
46755;SDS011;32506;52.826;-1.192;2024-01-30T02:31:57;9.38;;;3.28;;
46755;SDS011;32506;52.826;-1.192;2024-01-30T02:34:23;9.95;;;2.42;;
46755;SDS011;32506;52.826;-1.192;2024-01-30T02:36:49;6.00;;;2.28;;
46755;SDS011;32506;52.826;-1.192;2024-01-30T02:39:15;7.07;;;2.47;;
46755;SDS011;32506;52.826;-1.192;2024-01-30T02:41:41;5.85;;;2.58;;
46755;SDS011;32506;52.826;-1.192;2024-01-30T02:44:06;4.53;;;1.67;;
46755;SDS011;32506;52.826;-1.192;2024-01-30T02:46:32;4.65;;;1.60;;
46755;SDS011;32506;52.826;-1.192;2024-01-30T02:48:58;4.97;;;1.67;;
46755;SDS011;32506;52.826;-1.192;2024-01-30T02:51:24;4.80;;;1.65;;
46755;SDS011;32506;52.826;-1.192;2024-01-30T02:53:49;3.97;;;1.58;;
46755;SDS011;32506;52.826;-1.192;2024-01-30T02:56:15;4.05;;;1.40;;
46755;SDS011;32506;52.826;-1.192;2024-01-30T02:58:41;4.60;;;1.42;;
46755;SDS011;32506;52.826;-1.192;2024-01-30T03:01:07;3.55;;;1.20;;
46755;SDS011;32506;52.826;-1.192;2024-01-30T03:03:32;3.83;;;1.10;;
46755;SDS011;32506;52.826;-1.192;2024-01-30T03:06:00;2.50;;;1.00;;
46755;SDS011;32506;52.826;-1.192;2024-01-30T03:08:27;2.75;;;1.02;;
46755;SDS011;32506;52.826;-1.192;2024-01-30T03:10:53;1.58;;;0.70;;
46755;SDS011;32506;52.826;-1.192;2024-01-30T03:13:19;2.95;;;1.08;;
46755;SDS011;32506;52.826;-1.192;2024-01-30T03:15:44;3.95;;;1.10;;
46755;SDS011;32506;52.826;-1.192;2024-01-30T03:18:10;4.63;;;1.15;;
46755;SDS011;32506;52.826;-1.192;2024-01-30T03:20:36;3.72;;;1.02;;
46755;SDS011;32506;52.826;-1.192;2024-01-30T03:23:02;3.38;;;1.00;;
46755;SDS011;32506;52.826;-1.192;2024-01-30T03:25:27;2.40;;;0.82;;
46755;SDS011;32506;52.826;-1.192;2024-01-30T03:27:53;3.55;;;1.40;;
46755;SDS011;32506;52.826;-1.192;2024-01-30T03:30:19;2.35;;;0.90;;
46755;SDS011;32506;52.826;-1.192;2024-01-30T03:32:45;3.90;;;1.00;;
46755;SDS011;32506;52.826;-1.192;2024-01-30T03:35:10;2.03;;;0.90;;
46755;SDS011;32506;52.826;-1.192;2024-01-30T03:37:36;1.73;;;0.90;;
46755;SDS011;32506;52.826;-1.192;2024-01-30T03:40:02;1.70;;;0.77;;
46755;SDS011;32506;52.826;-1.192;2024-01-30T03:42:28;3.15;;;1.13;;
46755;SDS011;32506;52.826;-1.192;2024-01-30T03:44:54;2.00;;;1.00;;
46755;SDS011;32506;52.826;-1.192;2024-01-30T03:47:24;0.68;;;0.50;;
46755;SDS011;32506;52.826;-1.192;2024-01-30T03:49:50;2.10;;;1.10;;
46755;SDS011;32506;52.826;-1.192;2024-01-30T03:52:16;1.55;;;0.90;;
46755;SDS011;32506;52.826;-1.192;2024-01-30T03:54:42;3.50;;;1.40;;
46755;SDS011;32506;52.826;-1.192;2024-01-30T03:57:08;1.75;;;1.48;;
46755;SDS011;32506;52.826;-1.192;2024-01-30T03:59:34;2.75;;;2.20;;
46755;SDS011;32506;52.826;-1.192;2024-01-30T04:01:59;3.50;;;2.20;;
46755;SDS011;32506;52.826;-1.192;2024-01-30T04:04:29;3.53;;;2.50;;
46755;SDS011;32506;52.826;-1.192;2024-01-30T04:06:55;3.80;;;3.35;;
46755;SDS011;32506;52.826;-1.192;2024-01-30T04:09:21;3.92;;;3.53;;
46755;SDS011;32506;52.826;-1.192;2024-01-30T04:11:47;4.18;;;3.45;;
46755;SDS011;32506;52.826;-1.192;2024-01-30T04:14:13;4.45;;;3.97;;
46755;SDS011;32506;52.826;-1.192;2024-01-30T04:16:39;4.20;;;3.67;;
46755;SDS011;32506;52.826;-1.192;2024-01-30T04:19:04;4.57;;;3.72;;
46755;SDS011;32506;52.826;-1.192;2024-01-30T04:21:30;4.55;;;3.92;;
46755;SDS011;32506;52.826;-1.192;2024-01-30T04:23:56;5.68;;;3.97;;
46755;SDS011;32506;52.826;-1.192;2024-01-30T04:26:22;4.32;;;3.88;;
46755;SDS011;32506;52.826;-1.192;2024-01-30T04:28:47;5.60;;;4.18;;
46755;SDS011;32506;52.826;-1.192;2024-01-30T04:31:13;4.78;;;3.95;;
46755;SDS011;32506;52.826;-1.192;2024-01-30T04:33:39;4.95;;;3.92;;
46755;SDS011;32506;52.826;-1.192;2024-01-30T04:36:07;5.72;;;3.70;;
46755;SDS011;32506;52.826;-1.192;2024-01-30T04:38:40;3.90;;;3.28;;
46755;SDS011;32506;52.826;-1.192;2024-01-30T04:41:07;5.47;;;3.47;;
46755;SDS011;32506;52.826;-1.192;2024-01-30T04:43:32;3.45;;;3.08;;
46755;SDS011;32506;52.826;-1.192;2024-01-30T04:46:07;3.70;;;2.45;;
46755;SDS011;32506;52.826;-1.192;2024-01-30T04:48:32;3.30;;;2.10;;
46755;SDS011;32506;52.826;-1.192;2024-01-30T04:50:58;2.55;;;1.85;;
46755;SDS011;32506;52.826;-1.192;2024-01-30T04:53:26;3.33;;;1.83;;
46755;SDS011;32506;52.826;-1.192;2024-01-30T04:55:54;2.33;;;1.70;;
46755;SDS011;32506;52.826;-1.192;2024-01-30T04:58:20;2.45;;;1.27;;
46755;SDS011;32506;52.826;-1.192;2024-01-30T05:00:45;2.35;;;1.52;;
46755;SDS011;32506;52.826;-1.192;2024-01-30T05:03:16;2.10;;;1.30;;
46755;SDS011;32506;52.826;-1.192;2024-01-30T05:05:47;2.72;;;1.70;;
46755;SDS011;32506;52.826;-1.192;2024-01-30T05:08:13;3.03;;;1.40;;
46755;SDS011;32506;52.826;-1.192;2024-01-30T05:10:39;3.42;;;1.75;;
46755;SDS011;32506;52.826;-1.192;2024-01-30T05:13:05;2.22;;;1.33;;
46755;SDS011;32506;52.826;-1.192;2024-01-30T05:15:32;3.35;;;1.75;;
46755;SDS011;32506;52.826;-1.192;2024-01-30T05:17:58;3.60;;;1.33;;
46755;SDS011;32506;52.826;-1.192;2024-01-30T05:20:23;3.92;;;2.03;;
46755;SDS011;32506;52.826;-1.192;2024-01-30T05:22:53;4.35;;;1.80;;
46755;SDS011;32506;52.826;-1.192;2024-01-30T05:25:23;3.65;;;1.85;;
46755;SDS011;32506;52.826;-1.192;2024-01-30T05:27:49;4.65;;;1.67;;
46755;SDS011;32506;52.826;-1.192;2024-01-30T05:30:15;4.03;;;1.80;;
46755;SDS011;32506;52.826;-1.192;2024-01-30T05:32:41;3.40;;;1.80;;
46755;SDS011;32506;52.826;-1.192;2024-01-30T05:35:08;5.45;;;1.90;;
46755;SDS011;32506;52.826;-1.192;2024-01-30T05:37:34;3.90;;;1.83;;
46755;SDS011;32506;52.826;-1.192;2024-01-30T05:40:02;3.05;;;1.85;;
46755;SDS011;32506;52.826;-1.192;2024-01-30T05:42:36;5.60;;;1.85;;
46755;SDS011;32506;52.826;-1.192;2024-01-30T05:45:05;6.75;;;2.15;;
46755;SDS011;32506;52.826;-1.192;2024-01-30T05:47:31;5.70;;;2.05;;
46755;SDS011;32506;52.826;-1.192;2024-01-30T05:49:57;7.10;;;2.20;;
46755;SDS011;32506;52.826;-1.192;2024-01-30T05:52:22;5.97;;;2.10;;
46755;SDS011;32506;52.826;-1.192;2024-01-30T05:54:49;4.57;;;1.75;;
46755;SDS011;32506;52.826;-1.192;2024-01-30T05:57:17;6.60;;;1.77;;
46755;SDS011;32506;52.826;-1.192;2024-01-30T05:59:49;5.40;;;1.90;;
46755;SDS011;32506;52.826;-1.192;2024-01-30T06:02:17;4.63;;;1.80;;
46755;SDS011;32506;52.826;-1.192;2024-01-30T06:04:45;5.40;;;1.80;;
46755;SDS011;32506;52.826;-1.192;2024-01-30T06:07:11;4.50;;;1.58;;
46755;SDS011;32506;52.826;-1.192;2024-01-30T06:09:37;3.78;;;1.40;;
46755;SDS011;32506;52.826;-1.192;2024-01-30T06:12:04;7.43;;;1.58;;
46755;SDS011;32506;52.826;-1.192;2024-01-30T06:14:33;5.00;;;1.48;;
46755;SDS011;32506;52.826;-1.192;2024-01-30T06:16:59;5.28;;;1.50;;
46755;SDS011;32506;52.826;-1.192;2024-01-30T06:19:44;7.63;;;1.85;;
46755;SDS011;32506;52.826;-1.192;2024-01-30T06:22:11;4.47;;;1.83;;
46755;SDS011;32506;52.826;-1.192;2024-01-30T06:24:39;5.15;;;1.70;;
46755;SDS011;32506;52.826;-1.192;2024-01-30T06:27:04;4.22;;;1.40;;
46755;SDS011;32506;52.826;-1.192;2024-01-30T06:29:40;6.22;;;1.52;;
46755;SDS011;32506;52.826;-1.192;2024-01-30T06:32:07;6.38;;;1.42;;
46755;SDS011;32506;52.826;-1.192;2024-01-30T06:34:34;4.80;;;1.30;;
46755;SDS011;32506;52.826;-1.192;2024-01-30T06:37:00;6.90;;;2.08;;
46755;SDS011;32506;52.826;-1.192;2024-01-30T06:39:28;10.27;;;1.88;;
46755;SDS011;32506;52.826;-1.192;2024-01-30T06:41:54;4.80;;;1.38;;
46755;SDS011;32506;52.826;-1.192;2024-01-30T06:44:41;4.93;;;1.42;;
46755;SDS011;32506;52.826;-1.192;2024-01-30T06:47:07;6.28;;;1.58;;
46755;SDS011;32506;52.826;-1.192;2024-01-30T06:49:33;5.30;;;1.60;;
46755;SDS011;32506;52.826;-1.192;2024-01-30T06:52:04;6.25;;;1.52;;
46755;SDS011;32506;52.826;-1.192;2024-01-30T06:54:31;4.68;;;1.95;;
46755;SDS011;32506;52.826;-1.192;2024-01-30T06:56:58;3.95;;;1.25;;
46755;SDS011;32506;52.826;-1.192;2024-01-30T06:59:24;5.25;;;2.20;;
46755;SDS011;32506;52.826;-1.192;2024-01-30T07:02:12;5.18;;;1.20;;
46755;SDS011;32506;52.826;-1.192;2024-01-30T07:04:54;4.10;;;1.30;;
46755;SDS011;32506;52.826;-1.192;2024-01-30T07:07:38;2.42;;;1.20;;
46755;SDS011;32506;52.826;-1.192;2024-01-30T07:10:07;3.10;;;1.05;;
46755;SDS011;32506;52.826;-1.192;2024-01-30T07:12:33;3.78;;;1.45;;
46755;SDS011;32506;52.826;-1.192;2024-01-30T07:14:59;2.70;;;1.17;;
46755;SDS011;32506;52.826;-1.192;2024-01-30T07:17:49;3.70;;;1.48;;
46755;SDS011;32506;52.826;-1.192;2024-01-30T07:20:15;1.83;;;1.10;;
46755;SDS011;32506;52.826;-1.192;2024-01-30T07:22:41;2.55;;;1.40;;
46755;SDS011;32506;52.826;-1.192;2024-01-30T07:25:07;2.80;;;1.27;;
46755;SDS011;32506;52.826;-1.192;2024-01-30T07:27:34;3.28;;;1.63;;
46755;SDS011;32506;52.826;-1.192;2024-01-30T07:30:19;2.45;;;1.23;;
46755;SDS011;32506;52.826;-1.192;2024-01-30T07:32:46;2.53;;;1.58;;
46755;SDS011;32506;52.826;-1.192;2024-01-30T07:35:14;3.05;;;1.77;;
46755;SDS011;32506;52.826;-1.192;2024-01-30T07:38:00;4.20;;;1.60;;
46755;SDS011;32506;52.826;-1.192;2024-01-30T07:40:28;3.67;;;2.03;;
46755;SDS011;32506;52.826;-1.192;2024-01-30T07:43:14;5.95;;;2.38;;
46755;SDS011;32506;52.826;-1.192;2024-01-30T07:45:45;4.10;;;1.92;;
46755;SDS011;32506;52.826;-1.192;2024-01-30T07:48:11;3.85;;;2.20;;
46755;SDS011;32506;52.826;-1.192;2024-01-30T07:50:50;6.60;;;2.35;;
46755;SDS011;32506;52.826;-1.192;2024-01-30T07:53:19;3.08;;;2.28;;
46755;SDS011;32506;52.826;-1.192;2024-01-30T07:55:45;5.80;;;2.72;;
46755;SDS011;32506;52.826;-1.192;2024-01-30T07:58:12;3.92;;;2.78;;
46755;SDS011;32506;52.826;-1.192;2024-01-30T08:00:38;3.20;;;2.28;;
46755;SDS011;32506;52.826;-1.192;2024-01-30T08:03:05;5.15;;;3.13;;
46755;SDS011;32506;52.826;-1.192;2024-01-30T08:05:43;3.25;;;2.22;;
46755;SDS011;32506;52.826;-1.192;2024-01-30T08:08:28;6.55;;;2.78;;
46755;SDS011;32506;52.826;-1.192;2024-01-30T08:10:53;5.88;;;2.63;;
46755;SDS011;32506;52.826;-1.192;2024-01-30T08:13:19;5.55;;;3.00;;
46755;SDS011;32506;52.826;-1.192;2024-01-30T08:15:46;4.00;;;2.83;;
46755;SDS011;32506;52.826;-1.192;2024-01-30T08:18:16;4.10;;;2.67;;
46755;SDS011;32506;52.826;-1.192;2024-01-30T08:20:44;6.68;;;3.03;;
46755;SDS011;32506;52.826;-1.192;2024-01-30T08:23:12;4.45;;;2.63;;
46755;SDS011;32506;52.826;-1.192;2024-01-30T08:25:38;5.95;;;3.17;;
46755;SDS011;32506;52.826;-1.192;2024-01-30T08:28:21;5.15;;;3.22;;
46755;SDS011;32506;52.826;-1.192;2024-01-30T08:31:06;7.03;;;3.38;;
46755;SDS011;32506;52.826;-1.192;2024-01-30T08:33:32;5.15;;;3.28;;
46755;SDS011;32506;52.826;-1.192;2024-01-30T08:35:58;9.20;;;3.67;;
46755;SDS011;32506;52.826;-1.192;2024-01-30T08:38:24;5.93;;;3.70;;
46755;SDS011;32506;52.826;-1.192;2024-01-30T08:40:54;6.88;;;3.72;;
46755;SDS011;32506;52.826;-1.192;2024-01-30T08:43:59;4.85;;;3.25;;
46755;SDS011;32506;52.826;-1.192;2024-01-30T08:46:25;5.63;;;3.80;;
46755;SDS011;32506;52.826;-1.192;2024-01-30T08:49:06;5.43;;;3.80;;
46755;SDS011;32506;52.826;-1.192;2024-01-30T08:51:34;7.47;;;4.18;;
46755;SDS011;32506;52.826;-1.192;2024-01-30T08:54:00;6.10;;;3.42;;
46755;SDS011;32506;52.826;-1.192;2024-01-30T08:56:26;5.32;;;3.95;;
46755;SDS011;32506;52.826;-1.192;2024-01-30T08:59:20;6.13;;;3.72;;
46755;SDS011;32506;52.826;-1.192;2024-01-30T09:01:55;5.28;;;4.40;;
46755;SDS011;32506;52.826;-1.192;2024-01-30T09:04:23;5.70;;;3.90;;
46755;SDS011;32506;52.826;-1.192;2024-01-30T09:07:04;4.78;;;3.65;;
46755;SDS011;32506;52.826;-1.192;2024-01-30T09:09:59;4.55;;;3.38;;
46755;SDS011;32506;52.826;-1.192;2024-01-30T09:12:31;6.45;;;3.55;;
46755;SDS011;32506;52.826;-1.192;2024-01-30T09:15:54;7.47;;;4.38;;
46755;SDS011;32506;52.826;-1.192;2024-01-30T09:18:50;6.43;;;3.50;;
46755;SDS011;32506;52.826;-1.192;2024-01-30T09:21:16;4.47;;;3.08;;
46755;SDS011;32506;52.826;-1.192;2024-01-30T09:23:42;5.30;;;3.47;;
46755;SDS011;32506;52.826;-1.192;2024-01-30T09:26:08;5.10;;;2.80;;
46755;SDS011;32506;52.826;-1.192;2024-01-30T09:28:53;4.57;;;3.03;;
46755;SDS011;32506;52.826;-1.192;2024-01-30T09:32:01;4.20;;;2.63;;
46755;SDS011;32506;52.826;-1.192;2024-01-30T09:35:07;5.53;;;3.03;;
46755;SDS011;32506;52.826;-1.192;2024-01-30T09:37:36;5.38;;;2.63;;
46755;SDS011;32506;52.826;-1.192;2024-01-30T09:40:41;3.60;;;2.67;;
46755;SDS011;32506;52.826;-1.192;2024-01-30T09:43:48;3.90;;;2.42;;
46755;SDS011;32506;52.826;-1.192;2024-01-30T09:46:43;4.70;;;2.90;;
46755;SDS011;32506;52.826;-1.192;2024-01-30T09:49:13;4.00;;;2.60;;
46755;SDS011;32506;52.826;-1.192;2024-01-30T09:52:00;3.85;;;2.03;;
46755;SDS011;32506;52.826;-1.192;2024-01-30T09:54:45;5.18;;;2.35;;
46755;SDS011;32506;52.826;-1.192;2024-01-30T09:57:34;2.83;;;2.03;;
46755;SDS011;32506;52.826;-1.192;2024-01-30T10:00:26;2.38;;;1.85;;
46755;SDS011;32506;52.826;-1.192;2024-01-30T10:03:24;2.40;;;1.70;;
46755;SDS011;32506;52.826;-1.192;2024-01-30T10:05:51;2.03;;;1.67;;
46755;SDS011;32506;52.826;-1.192;2024-01-30T10:08:36;2.65;;;1.58;;
46755;SDS011;32506;52.826;-1.192;2024-01-30T10:11:26;3.08;;;1.40;;
46755;SDS011;32506;52.826;-1.192;2024-01-30T10:14:32;2.22;;;1.50;;
46755;SDS011;32506;52.826;-1.192;2024-01-30T10:17:38;2.08;;;1.27;;
46755;SDS011;32506;52.826;-1.192;2024-01-30T10:20:24;1.58;;;1.48;;
46755;SDS011;32506;52.826;-1.192;2024-01-30T10:23:12;1.88;;;1.52;;
46755;SDS011;32506;52.826;-1.192;2024-01-30T10:26:17;1.88;;;1.33;;
46755;SDS011;32506;52.826;-1.192;2024-01-30T10:31:35;4.22;;;1.30;;
46755;SDS011;32506;52.826;-1.192;2024-01-30T10:34:46;3.42;;;1.20;;
46755;SDS011;32506;52.826;-1.192;2024-01-30T10:37:34;1.38;;;1.10;;
46755;SDS011;32506;52.826;-1.192;2024-01-30T10:40:43;3.65;;;1.48;;
46755;SDS011;32506;52.826;-1.192;2024-01-30T10:43:41;1.98;;;1.23;;
46755;SDS011;32506;52.826;-1.192;2024-01-30T10:46:18;1.90;;;1.08;;
46755;SDS011;32506;52.826;-1.192;2024-01-30T10:48:50;1.23;;;0.90;;
46755;SDS011;32506;52.826;-1.192;2024-01-30T10:51:38;1.50;;;1.00;;
46755;SDS011;32506;52.826;-1.192;2024-01-30T10:54:06;1.63;;;1.05;;
46755;SDS011;32506;52.826;-1.192;2024-01-30T10:56:54;3.42;;;1.30;;
46755;SDS011;32506;52.826;-1.192;2024-01-30T10:59:40;1.98;;;1.10;;
46755;SDS011;32506;52.826;-1.192;2024-01-30T11:02:48;1.92;;;0.80;;
46755;SDS011;32506;52.826;-1.192;2024-01-30T11:05:26;2.28;;;0.85;;
46755;SDS011;32506;52.826;-1.192;2024-01-30T11:07:58;2.33;;;0.95;;
46755;SDS011;32506;52.826;-1.192;2024-01-30T11:10:48;1.05;;;0.60;;
46755;SDS011;32506;52.826;-1.192;2024-01-30T11:13:30;1.83;;;0.73;;
46755;SDS011;32506;52.826;-1.192;2024-01-30T11:16:35;2.28;;;0.70;;
46755;SDS011;32506;52.826;-1.192;2024-01-30T11:19:33;2.22;;;0.70;;
46755;SDS011;32506;52.826;-1.192;2024-01-30T11:22:20;0.90;;;0.70;;
46755;SDS011;32506;52.826;-1.192;2024-01-30T11:25:15;2.42;;;0.98;;
46755;SDS011;32506;52.826;-1.192;2024-01-30T11:28:20;2.92;;;0.80;;
46755;SDS011;32506;52.826;-1.192;2024-01-30T11:31:08;0.80;;;0.50;;
46755;SDS011;32506;52.826;-1.192;2024-01-30T11:33:53;1.02;;;0.52;;
46755;SDS011;32506;52.826;-1.192;2024-01-30T11:36:39;0.88;;;0.50;;
46755;SDS011;32506;52.826;-1.192;2024-01-30T11:39:12;2.03;;;0.70;;
46755;SDS011;32506;52.826;-1.192;2024-01-30T11:42:17;1.75;;;0.70;;
46755;SDS011;32506;52.826;-1.192;2024-01-30T11:45:04;1.40;;;0.60;;
46755;SDS011;32506;52.826;-1.192;2024-01-30T11:47:53;1.27;;;0.50;;
46755;SDS011;32506;52.826;-1.192;2024-01-30T11:50:20;1.80;;;0.70;;
46755;SDS011;32506;52.826;-1.192;2024-01-30T11:53:09;1.60;;;0.60;;
46755;SDS011;32506;52.826;-1.192;2024-01-30T11:55:57;1.65;;;0.57;;
46755;SDS011;32506;52.826;-1.192;2024-01-30T11:58:45;1.17;;;0.60;;
46755;SDS011;32506;52.826;-1.192;2024-01-30T12:01:31;0.77;;;0.60;;
46755;SDS011;32506;52.826;-1.192;2024-01-30T12:04:22;1.58;;;0.73;;
46755;SDS011;32506;52.826;-1.192;2024-01-30T12:07:28;0.63;;;0.60;;
46755;SDS011;32506;52.826;-1.192;2024-01-30T12:10:36;1.15;;;0.68;;
46755;SDS011;32506;52.826;-1.192;2024-01-30T12:13:30;1.55;;;0.70;;
46755;SDS011;32506;52.826;-1.192;2024-01-30T12:16:19;1.38;;;0.60;;
46755;SDS011;32506;52.826;-1.192;2024-01-30T12:18:58;1.05;;;0.82;;
46755;SDS011;32506;52.826;-1.192;2024-01-30T12:21:25;1.42;;;0.70;;
46755;SDS011;32506;52.826;-1.192;2024-01-30T12:24:00;1.70;;;0.90;;
46755;SDS011;32506;52.826;-1.192;2024-01-30T12:26:26;1.85;;;0.65;;
46755;SDS011;32506;52.826;-1.192;2024-01-30T12:28:55;1.88;;;0.80;;
46755;SDS011;32506;52.826;-1.192;2024-01-30T12:31:27;2.00;;;0.80;;
46755;SDS011;32506;52.826;-1.192;2024-01-30T12:34:01;3.08;;;0.88;;
46755;SDS011;32506;52.826;-1.192;2024-01-30T12:36:28;1.80;;;1.00;;
46755;SDS011;32506;52.826;-1.192;2024-01-30T12:38:56;1.30;;;0.90;;
46755;SDS011;32506;52.826;-1.192;2024-01-30T12:41:40;1.38;;;0.98;;
46755;SDS011;32506;52.826;-1.192;2024-01-30T12:44:15;1.73;;;0.88;;
46755;SDS011;32506;52.826;-1.192;2024-01-30T12:46:40;1.98;;;1.17;;
46755;SDS011;32506;52.826;-1.192;2024-01-30T12:49:06;1.40;;;1.00;;
46755;SDS011;32506;52.826;-1.192;2024-01-30T12:51:34;3.28;;;1.35;;
46755;SDS011;32506;52.826;-1.192;2024-01-30T12:54:04;1.63;;;1.10;;
46755;SDS011;32506;52.826;-1.192;2024-01-30T12:56:31;1.50;;;1.17;;
46755;SDS011;32506;52.826;-1.192;2024-01-30T12:58:57;1.80;;;1.00;;
46755;SDS011;32506;52.826;-1.192;2024-01-30T13:01:22;1.92;;;1.00;;
46755;SDS011;32506;52.826;-1.192;2024-01-30T13:03:48;1.73;;;1.15;;
46755;SDS011;32506;52.826;-1.192;2024-01-30T13:06:31;1.67;;;0.80;;
46755;SDS011;32506;52.826;-1.192;2024-01-30T13:08:57;2.33;;;0.90;;
46755;SDS011;32506;52.826;-1.192;2024-01-30T13:11:22;2.80;;;1.20;;
46755;SDS011;32506;52.826;-1.192;2024-01-30T13:13:50;1.27;;;0.80;;
46755;SDS011;32506;52.826;-1.192;2024-01-30T13:16:15;1.17;;;0.88;;
46755;SDS011;32506;52.826;-1.192;2024-01-30T13:18:41;0.82;;;0.70;;
46755;SDS011;32506;52.826;-1.192;2024-01-30T13:21:06;1.23;;;0.70;;
46755;SDS011;32506;52.826;-1.192;2024-01-30T13:23:32;0.90;;;0.60;;
46755;SDS011;32506;52.826;-1.192;2024-01-30T13:25:58;1.02;;;0.70;;
46755;SDS011;32506;52.826;-1.192;2024-01-30T13:28:23;0.80;;;0.60;;
46755;SDS011;32506;52.826;-1.192;2024-01-30T13:30:51;1.48;;;0.70;;
46755;SDS011;32506;52.826;-1.192;2024-01-30T13:33:17;0.60;;;0.50;;
46755;SDS011;32506;52.826;-1.192;2024-01-30T13:35:42;1.75;;;1.00;;
46755;SDS011;32506;52.826;-1.192;2024-01-30T13:38:08;2.03;;;0.82;;
46755;SDS011;32506;52.826;-1.192;2024-01-30T13:40:35;1.23;;;0.50;;
46755;SDS011;32506;52.826;-1.192;2024-01-30T13:43:01;1.10;;;0.60;;
46755;SDS011;32506;52.826;-1.192;2024-01-30T13:45:26;1.80;;;0.55;;
46755;SDS011;32506;52.826;-1.192;2024-01-30T13:47:52;0.50;;;0.40;;
46755;SDS011;32506;52.826;-1.192;2024-01-30T13:50:18;0.73;;;0.43;;
46755;SDS011;32506;52.826;-1.192;2024-01-30T13:52:43;0.75;;;0.30;;
46755;SDS011;32506;52.826;-1.192;2024-01-30T13:55:09;0.55;;;0.30;;
46755;SDS011;32506;52.826;-1.192;2024-01-30T13:57:35;0.45;;;0.30;;
46755;SDS011;32506;52.826;-1.192;2024-01-30T14:00:02;0.35;;;0.20;;
46755;SDS011;32506;52.826;-1.192;2024-01-30T14:02:32;1.70;;;0.30;;
46755;SDS011;32506;52.826;-1.192;2024-01-30T14:04:57;1.58;;;0.38;;
46755;SDS011;32506;52.826;-1.192;2024-01-30T14:07:23;0.88;;;0.32;;
46755;SDS011;32506;52.826;-1.192;2024-01-30T14:09:49;1.30;;;0.30;;
46755;SDS011;32506;52.826;-1.192;2024-01-30T14:12:14;1.33;;;0.30;;
46755;SDS011;32506;52.826;-1.192;2024-01-30T14:14:40;2.08;;;0.20;;
46755;SDS011;32506;52.826;-1.192;2024-01-30T14:17:06;0.93;;;0.30;;
46755;SDS011;32506;52.826;-1.192;2024-01-30T14:19:32;0.73;;;0.28;;
46755;SDS011;32506;52.826;-1.192;2024-01-30T14:21:59;1.60;;;0.40;;
46755;SDS011;32506;52.826;-1.192;2024-01-30T14:24:24;1.60;;;0.30;;
46755;SDS011;32506;52.826;-1.192;2024-01-30T14:26:50;0.45;;;0.28;;
46755;SDS011;32506;52.826;-1.192;2024-01-30T14:29:16;1.67;;;0.30;;
46755;SDS011;32506;52.826;-1.192;2024-01-30T14:31:41;0.95;;;0.30;;
46755;SDS011;32506;52.826;-1.192;2024-01-30T14:34:07;0.65;;;0.40;;
46755;SDS011;32506;52.826;-1.192;2024-01-30T14:36:33;3.20;;;0.52;;
46755;SDS011;32506;52.826;-1.192;2024-01-30T14:38:59;1.55;;;0.30;;
46755;SDS011;32506;52.826;-1.192;2024-01-30T14:41:25;0.45;;;0.20;;
46755;SDS011;32506;52.826;-1.192;2024-01-30T14:43:51;1.60;;;0.25;;
46755;SDS011;32506;52.826;-1.192;2024-01-30T14:46:16;0.68;;;0.30;;
46755;SDS011;32506;52.826;-1.192;2024-01-30T14:48:42;1.17;;;0.10;;
46755;SDS011;32506;52.826;-1.192;2024-01-30T14:51:08;1.15;;;0.30;;
46755;SDS011;32506;52.826;-1.192;2024-01-30T14:53:33;0.60;;;0.20;;
46755;SDS011;32506;52.826;-1.192;2024-01-30T14:55:59;0.80;;;0.30;;
46755;SDS011;32506;52.826;-1.192;2024-01-30T14:58:26;0.88;;;0.50;;
46755;SDS011;32506;52.826;-1.192;2024-01-30T15:00:51;0.77;;;0.40;;
46755;SDS011;32506;52.826;-1.192;2024-01-30T15:03:17;0.90;;;0.50;;